Time;durP1;ratioP1;P1;durP2;ratioP2;P2;SDS_P1;SDS_P2;PMS_P1;PMS_P2;Temp;Humidity;BMP_temperature;BMP_pressure;BME280_temperature;BME280_humidity;BME280_pressure;Samples;Min_cycle;Max_cycle;Signal;HPM_P1;HPM_P2
2022/03/14 00:03:53;;;;;;;;;;;;;;;10.57;62.33789;101700.2;;;;-81
2022/03/14 00:08:54;;;;;;;;;;;;;;;10.56;62.73535;101701.2;;;;-80
2022/03/14 00:09:10;;;;;;;4.1;2.1;;;;;;;;;;;;;-79
2022/03/14 00:13:47;;;;;;;;;;;;;;;10.54;63.02344;101707.2;;;;-81
2022/03/14 00:18:51;;;;;;;;;;;;;;;10.53;63.62305;101705.6;;;;-79
2022/03/14 00:23:47;;;;;;;;;;;;;;;10.5;62.68457;101704.3;;;;-81
2022/03/14 00:28:54;;;;;;;;;;;;;;;10.49;63.00586;101701.4;;;;-79
2022/03/14 00:33:49;;;;;;;;;;;;;;;10.44;62.96484;101707.3;;;;-82
2022/03/14 00:38:55;;;;;;;;;;;;;;;10.38;62.98828;101707.5;;;;-80
2022/03/14 00:39:09;;;;;;;4.1;2.2;;;;;;;;;;;;;-80
2022/03/14 00:43:57;;;;;;;;;;;;;;;10.32;63.24609;101711.5;;;;-78
2022/03/14 00:48:46;;;;;;;;;;;;;;;10.26;63.76074;101719.1;;;;-80
2022/03/14 00:53:46;;;;;;;;;;;;;;;10.18;63.4043;101724.1;;;;-79
2022/03/14 00:58:55;;;;;;;;;;;;;;;10.09;63.65625;101726.4;;;;-80
2022/03/14 01:03:47;;;;;;;;;;;;;;;10.03;63.63867;101728;;;;-81
2022/03/14 01:08:46;;;;;;;;;;;;;;;9.96;63.59473;101732.5;;;;-81
2022/03/14 01:09:14;;;;;;;3.7;2;;;;;;;;;;;;;-81
2022/03/14 01:13:51;;;;;;;;;;;;;;;9.92;63.76563;101736.3;;;;-81
2022/03/14 01:18:47;;;;;;;;;;;;;;;9.89;63.66211;101747.1;;;;-81
2022/03/14 01:23:46;;;;;;;;;;;;;;;9.86;63.72461;101752.2;;;;-79
2022/03/14 01:28:48;;;;;;;;;;;;;;;9.84;63.74219;101757.8;;;;-81
2022/03/14 01:33:52;;;;;;;;;;;;;;;9.83;63.90723;101766.8;;;;-79
2022/03/14 01:38:46;;;;;;;;;;;;;;;9.82;63.96289;101765.8;;;;-82
2022/03/14 01:39:15;;;;;;;2.8;1.6;;;;;;;;;;;;;-82
2022/03/14 01:43:47;;;;;;;;;;;;;;;9.81;63.88281;101770.5;;;;-80
2022/03/14 01:48:49;;;;;;;;;;;;;;;9.79;64.01367;101770.9;;;;-79
2022/03/14 01:53:48;;;;;;;;;;;;;;;9.78;64.02441;101780.6;;;;-79
2022/03/14 01:58:48;;;;;;;;;;;;;;;9.76;64.08691;101774.6;;;;-81
2022/03/14 02:03:50;;;;;;;;;;;;;;;9.75;64.13184;101767.9;;;;-81
2022/03/14 02:08:49;;;;;;;;;;;;;;;9.75;64.03027;101764.6;;;;-81
2022/03/14 02:09:13;;;;;;;3.3;1.8;;;;;;;;;;;;;-81
2022/03/14 02:13:46;;;;;;;;;;;;;;;9.75;65.20605;101765.3;;;;-80
2022/03/14 02:18:46;;;;;;;;;;;;;;;9.74;65.11523;101769;;;;-81
2022/03/14 02:23:48;;;;;;;;;;;;;;;9.68;64.79785;101783.3;;;;-80
2022/03/14 02:28:46;;;;;;;;;;;;;;;9.65;65.08984;101789;;;;-81
2022/03/14 02:33:46;;;;;;;;;;;;;;;9.6;65.07324;101793.1;;;;-81
2022/03/14 02:38:49;;;;;;;;;;;;;;;9.54;65.1084;101799;;;;-81
2022/03/14 02:39:12;;;;;;;4.1;1.9;;;;;;;;;;;;;-81
2022/03/14 02:43:46;;;;;;;;;;;;;;;9.5;65.3252;101811.7;;;;-83
2022/03/14 02:48:47;;;;;;;;;;;;;;;9.47;65.29883;101816.1;;;;-80
2022/03/14 02:53:46;;;;;;;;;;;;;;;9.47;65.57422;101814.4;;;;-80
2022/03/14 02:58:54;;;;;;;;;;;;;;;9.46;65.60645;101820.9;;;;-79
2022/03/14 03:03:48;;;;;;;;;;;;;;;9.47;65.64063;101827.2;;;;-81
2022/03/14 03:08:49;;;;;;;;;;;;;;;9.5;66.70898;101838.6;;;;-80
2022/03/14 03:09:12;;;;;;;4.1;2.1;;;;;;;;;;;;;-79
2022/03/14 03:13:47;;;;;;;;;;;;;;;9.53;67.25781;101841.2;;;;-80
2022/03/14 03:18:47;;;;;;;;;;;;;;;9.56;67.66016;101846;;;;-81
2022/03/14 03:23:46;;;;;;;;;;;;;;;9.56;67.50586;101850.1;;;;-80
2022/03/14 03:28:54;;;;;;;;;;;;;;;9.56;68.09277;101858.7;;;;-80
2022/03/14 03:33:47;;;;;;;;;;;;;;;9.57;68.28223;101875.2;;;;-80
2022/03/14 03:38:46;;;;;;;;;;;;;;;9.58;67.79688;101887.3;;;;-81
2022/03/14 03:39:13;;;;;;;4.1;2.4;;;;;;;;;;;;;-81
2022/03/14 03:43:46;;;;;;;;;;;;;;;9.58;68.47266;101895.7;;;;-79
2022/03/14 03:48:46;;;;;;;;;;;;;;;9.58;68.79395;101900.1;;;;-79
2022/03/14 03:53:48;;;;;;;;;;;;;;;9.57;69.53613;101906.8;;;;-81
2022/03/14 03:58:47;;;;;;;;;;;;;;;9.57;69.88867;101909.9;;;;-79
2022/03/14 04:03:54;;;;;;;;;;;;;;;9.56;69.08984;101916.7;;;;-79
2022/03/14 04:08:46;;;;;;;;;;;;;;;9.53;68.8418;101921.2;;;;-79
2022/03/14 04:09:13;;;;;;;7;4.2;;;;;;;;;;;;;-79
2022/03/14 04:13:48;;;;;;;;;;;;;;;9.49;68.09277;101930;;;;-80
2022/03/14 04:18:46;;;;;;;;;;;;;;;9.45;68.12012;101943.2;;;;-81
2022/03/14 04:23:46;;;;;;;;;;;;;;;9.44;68.99219;101945.3;;;;-80
2022/03/14 04:28:50;;;;;;;;;;;;;;;9.44;68.79395;101953.4;;;;-80
2022/03/14 04:33:50;;;;;;;;;;;;;;;9.41;68.01367;101957.9;;;;-80
2022/03/14 04:38:55;;;;;;;;;;;;;;;9.39;68.20996;101966.8;;;;-80
2022/03/14 04:39:16;;;;;;;8;4.6;;;;;;;;;;;;;-79
2022/03/14 04:43:46;;;;;;;;;;;;;;;9.39;68.89746;101967.3;;;;-80
2022/03/14 04:48:47;;;;;;;;;;;;;;;9.37;68.5293;101973;;;;-81
2022/03/14 04:53:50;;;;;;;;;;;;;;;9.37;69.36914;101984.4;;;;-79
2022/03/14 04:58:46;;;;;;;;;;;;;;;9.39;69.29492;101992.9;;;;-81
2022/03/14 05:03:46;;;;;;;;;;;;;;;9.37;69.30469;101999.8;;;;-79
2022/03/14 05:08:46;;;;;;;;;;;;;;;9.38;69.82617;102010.4;;;;-81
2022/03/14 05:09:17;;;;;;;10.8;6.1;;;;;;;;;;;;;-80
2022/03/14 05:13:47;;;;;;;;;;;;;;;9.36;69.43457;102016;;;;-81
2022/03/14 05:18:46;;;;;;;;;;;;;;;9.33;69.81641;102027.6;;;;-78
2022/03/14 05:23:47;;;;;;;;;;;;;;;9.3;70.05664;102040.5;;;;-81
2022/03/14 05:28:47;;;;;;;;;;;;;;;9.3;70.32031;102055.3;;;;-79
2022/03/14 05:33:47;;;;;;;;;;;;;;;9.28;70.33984;102065.3;;;;-79
2022/03/14 05:38:47;;;;;;;;;;;;;;;9.25;70.35742;102072;;;;-81
2022/03/14 05:39:17;;;;;;;17;8.3;;;;;;;;;;;;;-80
2022/03/14 05:43:48;;;;;;;;;;;;;;;9.23;70.76367;102084.9;;;;-80
2022/03/14 05:48:54;;;;;;;;;;;;;;;9.19;71.10059;102095.9;;;;-80
2022/03/14 05:53:46;;;;;;;;;;;;;;;9.16;71.55957;102102.5;;;;-80
2022/03/14 05:58:47;;;;;;;;;;;;;;;9.14;71.52344;102103.4;;;;-80
2022/03/14 06:03:54;;;;;;;;;;;;;;;9.11;71.60742;102102.4;;;;-81
2022/03/14 06:08:46;;;;;;;;;;;;;;;9.07;71.67578;102114.5;;;;-80
2022/03/14 06:09:19;;;;;;;11.8;5.5;;;;;;;;;;;;;-79
2022/03/14 06:13:46;;;;;;;;;;;;;;;9.03;71.91406;102132.3;;;;-80
2022/03/14 06:18:46;;;;;;;;;;;;;;;9;71.74219;102145.5;;;;-80
2022/03/14 06:23:46;;;;;;;;;;;;;;;8.98;71.73926;102149;;;;-80
2022/03/14 06:28:47;;;;;;;;;;;;;;;8.95;71.80273;102163;;;;-80
2022/03/14 06:33:49;;;;;;;;;;;;;;;8.92;71.80762;102187.8;;;;-80
2022/03/14 06:38:59;;;;;;;;;;;;;;;8.88;71.86621;102192;;;;-80
2022/03/14 06:39:16;;;;;;;7.8;2.8;;;;;;;;;;;;;-80
2022/03/14 06:43:46;;;;;;;;;;;;;;;8.89;71.89063;102205.2;;;;-81
2022/03/14 06:48:46;;;;;;;;;;;;;;;8.87;71.75488;102212.8;;;;-79
2022/03/14 06:53:46;;;;;;;;;;;;;;;8.86;71.66504;102224.5;;;;-80
2022/03/14 06:58:46;;;;;;;;;;;;;;;8.86;71.56543;102228.6;;;;-81
2022/03/14 07:03:46;;;;;;;;;;;;;;;8.85;71.46484;102234.8;;;;-81
2022/03/14 07:08:46;;;;;;;;;;;;;;;8.85;71.18945;102244;;;;-80
2022/03/14 07:09:16;;;;;;;6.1;1.8;;;;;;;;;;;;;-81
2022/03/14 07:13:51;;;;;;;;;;;;;;;8.86;71.17871;102244.4;;;;-80
2022/03/14 07:18:46;;;;;;;;;;;;;;;8.89;71.05078;102250.8;;;;-80
2022/03/14 07:23:46;;;;;;;;;;;;;;;8.9;70.9873;102254.1;;;;-80
2022/03/14 07:28:50;;;;;;;;;;;;;;;8.93;70.91309;102266.1;;;;-82
2022/03/14 07:33:47;;;;;;;;;;;;;;;8.97;70.64258;102271.9;;;;-80
2022/03/14 07:38:49;;;;;;;;;;;;;;;9;70.54883;102276.8;;;;-81
2022/03/14 07:39:29;;;;;;;5.6;1.8;;;;;;;;;;;;;-80
2022/03/14 07:43:46;;;;;;;;;;;;;;;9.04;70.7207;102284;;;;-81
2022/03/14 07:48:46;;;;;;;;;;;;;;;9.07;70.72656;102292.2;;;;-82
2022/03/14 07:53:46;;;;;;;;;;;;;;;9.1;70.66406;102294.1;;;;-81
2022/03/14 07:58:48;;;;;;;;;;;;;;;9.14;70.90234;102304.3;;;;-80
2022/03/14 08:03:46;;;;;;;;;;;;;;;9.19;70.64551;102307.5;;;;-80
2022/03/14 08:08:47;;;;;;;;;;;;;;;9.26;70.60254;102316.5;;;;-79
2022/03/14 08:09:21;;;;;;;9.2;3.9;;;;;;;;;;;;;-80
2022/03/14 08:13:48;;;;;;;;;;;;;;;9.34;71.26855;102320.8;;;;-80
2022/03/14 08:18:49;;;;;;;;;;;;;;;9.43;71.16016;102322.3;;;;-81
2022/03/14 08:23:48;;;;;;;;;;;;;;;9.52;71.73926;102326.8;;;;-80
2022/03/14 08:28:46;;;;;;;;;;;;;;;9.63;71.95703;102341.4;;;;-79
2022/03/14 08:33:50;;;;;;;;;;;;;;;9.74;72.33008;102348.4;;;;-80
2022/03/14 08:38:49;;;;;;;;;;;;;;;9.85;72.37109;102357.5;;;;-81
2022/03/14 08:39:24;;;;;;;15.1;7.1;;;;;;;;;;;;;-80
2022/03/14 08:43:51;;;;;;;;;;;;;;;9.92;72.16113;102356.6;;;;-81
2022/03/14 08:48:49;;;;;;;;;;;;;;;9.99;72.34863;102366.4;;;;-80
2022/03/14 08:53:47;;;;;;;;;;;;;;;10.08;72.29785;102373;;;;-79
2022/03/14 08:58:47;;;;;;;;;;;;;;;10.21;72.50879;102379.5;;;;-81
2022/03/14 09:03:46;;;;;;;;;;;;;;;10.31;72.14648;102384;;;;-81
2022/03/14 09:08:49;;;;;;;;;;;;;;;10.4;72.1084;102398.3;;;;-79
2022/03/14 09:09:18;;;;;;;18.7;8.8;;;;;;;;;;;;;-81
2022/03/14 09:13:49;;;;;;;;;;;;;;;10.5;72.10254;102403.6;;;;-81
2022/03/14 09:18:48;;;;;;;;;;;;;;;10.6;71.83984;102411.9;;;;-79
2022/03/14 09:23:51;;;;;;;;;;;;;;;10.61;71.78613;102416.7;;;;-80
2022/03/14 09:28:48;;;;;;;;;;;;;;;10.63;71.87891;102417;;;;-80
2022/03/14 09:33:49;;;;;;;;;;;;;;;10.71;71.88184;102427.3;;;;-80
2022/03/14 09:38:52;;;;;;;;;;;;;;;10.81;71.83008;102439;;;;-81
2022/03/14 09:39:24;;;;;;;18.6;9.7;;;;;;;;;;;;;-80
2022/03/14 09:43:51;;;;;;;;;;;;;;;10.89;71.47852;102447.4;;;;-81
2022/03/14 09:48:52;;;;;;;;;;;;;;;10.97;71.20215;102443.8;;;;-76
2022/03/14 09:53:47;;;;;;;;;;;;;;;11.03;71.2334;102449.5;;;;-76
2022/03/14 09:58:47;;;;;;;;;;;;;;;11.18;71.08008;102457.4;;;;-76
2022/03/14 10:03:49;;;;;;;;;;;;;;;11.39;70.99219;102460.7;;;;-76
2022/03/14 10:08:47;;;;;;;;;;;;;;;11.64;70.08594;102469;;;;-75
2022/03/14 10:09:21;;;;;;;16.2;8.7;;;;;;;;;;;;;-76
2022/03/14 10:13:46;;;;;;;;;;;;;;;11.79;69.28711;102481.3;;;;-77
2022/03/14 10:19:01;;;;;;;;;;;;;;;11.9;68.9375;102486.6;;;;-77
2022/03/14 10:23:59;;;;;;;;;;;;;;;12.01;68.67578;102488.8;;;;-77
2022/03/14 10:28:49;;;;;;;;;;;;;;;12.14;68.46191;102497.9;;;;-77
2022/03/14 10:33:49;;;;;;;;;;;;;;;12.35;68.10449;102501.1;;;;-77
2022/03/14 10:38:54;;;;;;;;;;;;;;;12.51;67.30273;102501.1;;;;-75
2022/03/14 10:39:27;;;;;;;17.3;7.3;;;;;;;;;;;;;-76
2022/03/14 10:43:51;;;;;;;;;;;;;;;12.6;66.84961;102498.5;;;;-76
2022/03/14 10:48:47;;;;;;;;;;;;;;;12.74;66.60352;102501.8;;;;-76
2022/03/14 10:53:54;;;;;;;;;;;;;;;12.92;65.90332;102518.2;;;;-77
2022/03/14 10:58:49;;;;;;;;;;;;;;;13.05;65.30762;102520.4;;;;-76
2022/03/14 11:03:52;;;;;;;;;;;;;;;13.19;64.91602;102524.1;;;;-77
2022/03/14 11:08:51;;;;;;;;;;;;;;;13.22;64.31641;102527.7;;;;-76
2022/03/14 11:09:22;;;;;;;15.8;5.8;;;;;;;;;;;;;-76
2022/03/14 11:13:47;;;;;;;;;;;;;;;13.27;64.26855;102518.9;;;;-76
2022/03/14 11:18:47;;;;;;;;;;;;;;;13.46;63.75879;102517.3;;;;-75
2022/03/14 11:23:47;;;;;;;;;;;;;;;13.72;63.48242;102520.6;;;;-76
2022/03/14 11:28:49;;;;;;;;;;;;;;;14.04;63.32617;102521.5;;;;-76
2022/03/14 11:33:47;;;;;;;;;;;;;;;14.32;62.61523;102523.8;;;;-76
2022/03/14 11:38:48;;;;;;;;;;;;;;;14.6;63.40723;102535;;;;-76
2022/03/14 11:39:24;;;;;;;11.6;4.1;;;;;;;;;;;;;-78
2022/03/14 11:43:48;;;;;;;;;;;;;;;14.84;62.46484;102545;;;;-76
2022/03/14 11:48:46;;;;;;;;;;;;;;;14.96;62.63965;102553.8;;;;-78
2022/03/14 11:53:56;;;;;;;;;;;;;;;15.11;63.58105;102562.2;;;;-76
2022/03/14 11:59:04;;;;;;;;;;;;;;;15.27;64.5166;102564.8;;;;-78
2022/03/14 12:03:51;;;;;;;;;;;;;;;15.47;65.29688;102563.5;;;;-76
2022/03/14 12:09:04;;;;;;;;;;;;;;;15.67;63.79883;102561.7;;;;-75
2022/03/14 12:09:45;;;;;;;11.3;4.2;;;;;;;;;;;;;-76
2022/03/14 12:13:50;;;;;;;;;;;;;;;15.9;65.72168;102569.1;;;;-76
2022/03/14 12:18:47;;;;;;;;;;;;;;;16.13;65.61914;102564.4;;;;-77
2022/03/14 12:23:55;;;;;;;;;;;;;;;16.38;66.38867;102568;;;;-76
2022/03/14 12:28:52;;;;;;;;;;;;;;;16.48;65.52539;102564.6;;;;-77
2022/03/14 12:33:47;;;;;;;;;;;;;;;16.49;65.16602;102575;;;;-76
2022/03/14 12:38:46;;;;;;;;;;;;;;;16.56;66.28125;102583.3;;;;-76
2022/03/14 12:39:31;;;;;;;12.4;5.2;;;;;;;;;;;;;-76
2022/03/14 12:43:51;;;;;;;;;;;;;;;16.62;66.74121;102587.8;;;;-77
2022/03/14 12:48:54;;;;;;;;;;;;;;;16.71;66.85645;102603.7;;;;-77
2022/03/14 12:53:58;;;;;;;;;;;;;;;16.79;65.77441;102614.2;;;;-77
2022/03/14 12:58:55;;;;;;;;;;;;;;;16.8;66.37305;102621.4;;;;-78
2022/03/14 13:03:47;;;;;;;;;;;;;;;16.85;66.61816;102631.1;;;;-77
2022/03/14 13:08:56;;;;;;;;;;;;;;;16.91;65.62305;102632.6;;;;-77
2022/03/14 13:09:35;;;;;;;13.3;4.8;;;;;;;;;;;;;-77
2022/03/14 13:13:47;;;;;;;;;;;;;;;16.9;65.20508;102633.4;;;;-77
2022/03/14 13:18:48;;;;;;;;;;;;;;;16.85;65.47949;102631.7;;;;-77
2022/03/14 13:23:52;;;;;;;;;;;;;;;16.86;65.68359;102640.5;;;;-77
2022/03/14 13:28:50;;;;;;;;;;;;;;;16.76;63.63867;102643.7;;;;-78
2022/03/14 13:33:50;;;;;;;;;;;;;;;16.69;63.75293;102639;;;;-78
2022/03/14 13:38:55;;;;;;;;;;;;;;;16.64;64.07227;102647.8;;;;-78
2022/03/14 13:39:32;;;;;;;11.3;4;;;;;;;;;;;;;-77
2022/03/14 13:43:48;;;;;;;;;;;;;;;16.65;64.9541;102646.3;;;;-78
2022/03/14 13:48:56;;;;;;;;;;;;;;;16.76;63.81934;102649.8;;;;-77
2022/03/14 13:53:52;;;;;;;;;;;;;;;16.59;62.8252;102642.9;;;;-79
2022/03/14 13:58:53;;;;;;;;;;;;;;;16.58;63.92969;102647.8;;;;-79
2022/03/14 14:03:48;;;;;;;;;;;;;;;16.6;63.78613;102644.7;;;;-78
2022/03/14 14:08:49;;;;;;;;;;;;;;;16.52;63.86328;102653.3;;;;-77
2022/03/14 14:09:36;;;;;;;13.2;4.2;;;;;;;;;;;;;-77
2022/03/14 14:14:06;;;;;;;;;;;;;;;16.51;63.46875;102655.6;;;;-77
2022/03/14 14:18:53;;;;;;;;;;;;;;;16.51;64.55078;102661;;;;-77
2022/03/14 14:23:50;;;;;;;;;;;;;;;16.37;62.02734;102665.1;;;;-78
2022/03/14 14:28:49;;;;;;;;;;;;;;;16.3;63.52734;102667;;;;-77
2022/03/14 14:33:49;;;;;;;;;;;;;;;16.27;62.62207;102668;;;;-79
2022/03/14 14:38:46;;;;;;;;;;;;;;;16.1;62.59766;102673.4;;;;-74
2022/03/14 14:39:41;;;;;;;11.4;3.3;;;;;;;;;;;;;-78
2022/03/14 14:43:56;;;;;;;;;;;;;;;16.17;64.01563;102665.1;;;;-77
2022/03/14 14:48:51;;;;;;;;;;;;;;;16.24;63.99219;102661.7;;;;-78
2022/03/14 14:53:47;;;;;;;;;;;;;;;16.35;63.99707;102658.8;;;;-79
2022/03/14 14:58:48;;;;;;;;;;;;;;;16.37;64.28125;102657.2;;;;-77
2022/03/14 15:03:47;;;;;;;;;;;;;;;16.32;63.16895;102654.6;;;;-77
2022/03/14 15:08:46;;;;;;;;;;;;;;;16.33;63.16016;102655.7;;;;-77
2022/03/14 15:09:39;;;;;;;8;2.4;;;;;;;;;;;;;-78
2022/03/14 15:13:53;;;;;;;;;;;;;;;16.36;58.61914;102649.2;;;;-78
2022/03/14 15:18:54;;;;;;;;;;;;;;;16.4;58.49023;102656.4;;;;-77
2022/03/14 15:23:49;;;;;;;;;;;;;;;16.28;59.66992;102662.6;;;;-78
2022/03/14 15:28:47;;;;;;;;;;;;;;;16.15;60.90332;102669.7;;;;-78
2022/03/14 15:33:50;;;;;;;;;;;;;;;16.04;61.67676;102664.3;;;;-77
2022/03/14 15:38:47;;;;;;;;;;;;;;;15.95;61.0459;102667;;;;-76
2022/03/14 15:39:41;;;;;;;7.5;1.7;;;;;;;;;;;;;-79
2022/03/14 15:43:46;;;;;;;;;;;;;;;15.84;61.58203;102666.2;;;;-76
2022/03/14 15:48:47;;;;;;;;;;;;;;;15.73;61.58887;102666.7;;;;-78
2022/03/14 15:53:48;;;;;;;;;;;;;;;15.6;61.16602;102673.5;;;;-76
2022/03/14 15:58:46;;;;;;;;;;;;;;;15.48;61.80078;102672.8;;;;-77
2022/03/14 16:03:47;;;;;;;;;;;;;;;15.31;61.31543;102678.1;;;;-77
2022/03/14 16:08:46;;;;;;;;;;;;;;;15.17;62.18457;102678.1;;;;-78
2022/03/14 16:09:45;;;;;;;5.2;1.5;;;;;;;;;;;;;-78
2022/03/14 16:18:47;;;;;;;;;;;;;;;14.93;61.4209;102683.6;;;;-78
2022/03/14 16:23:46;;;;;;;;;;;;;;;14.8;61.85254;102697.4;;;;-75
2022/03/14 16:28:47;;;;;;;;;;;;;;;14.67;61.87891;102713.6;;;;-77
2022/03/14 16:33:46;;;;;;;;;;;;;;;14.54;61.66992;102724.7;;;;-76
2022/03/14 16:38:46;;;;;;;;;;;;;;;14.38;61.24414;102730.8;;;;-76
2022/03/14 16:39:46;;;;;;;9.6;1.6;;;;;;;;;;;;;-77
2022/03/14 16:43:49;;;;;;;;;;;;;;;14.22;61.53516;102743.5;;;;-74
2022/03/14 16:48:51;;;;;;;;;;;;;;;14.06;61.58008;102757.4;;;;-76
2022/03/14 16:53:47;;;;;;;;;;;;;;;13.89;61.67969;102772.7;;;;-76
2022/03/14 16:58:49;;;;;;;;;;;;;;;13.71;61.55273;102775.5;;;;-75
2022/03/14 17:03:46;;;;;;;;;;;;;;;13.51;61.9502;102785.4;;;;-76
2022/03/14 17:08:49;;;;;;;;;;;;;;;13.3;62.13477;102787.6;;;;-77
2022/03/14 17:09:46;;;;;;;7;1.8;;;;;;;;;;;;;-76
2022/03/14 17:13:54;;;;;;;;;;;;;;;13.08;62.35938;102783.9;;;;-78
2022/03/14 17:18:47;;;;;;;;;;;;;;;12.88;62.48926;102791.5;;;;-77
2022/03/14 17:23:46;;;;;;;;;;;;;;;12.67;62.57129;102801.8;;;;-76
2022/03/14 17:28:54;;;;;;;;;;;;;;;12.45;62.71777;102808;;;;-75
2022/03/14 17:33:52;;;;;;;;;;;;;;;12.22;62.78613;102808.1;;;;-76
2022/03/14 17:38:48;;;;;;;;;;;;;;;11.98;63.01953;102809.9;;;;-76
2022/03/14 17:39:52;;;;;;;7.6;1.9;;;;;;;;;;;;;-78
2022/03/14 17:43:52;;;;;;;;;;;;;;;11.74;63.19727;102812.7;;;;-77
2022/03/14 17:48:49;;;;;;;;;;;;;;;11.54;63.2334;102825.4;;;;-77
2022/03/14 17:53:51;;;;;;;;;;;;;;;11.34;63.11523;102831.8;;;;-76
2022/03/14 17:58:49;;;;;;;;;;;;;;;11.13;62.97363;102837.2;;;;-76
2022/03/14 18:03:46;;;;;;;;;;;;;;;10.94;62.79199;102848.3;;;;-76
2022/03/14 18:08:47;;;;;;;;;;;;;;;10.74;62.92871;102848.6;;;;-76
2022/03/14 18:09:49;;;;;;;6.1;1.7;;;;;;;;;;;;;-77
2022/03/14 18:13:47;;;;;;;;;;;;;;;10.55;63.125;102855.8;;;;-76
2022/03/14 18:18:49;;;;;;;;;;;;;;;10.35;63.38477;102859.5;;;;-78
2022/03/14 18:29:07;;;;;;;;;;;;;;;9.99;63.9541;102868.9;;;;-76
2022/03/14 18:33:57;;;;;;;;;;;;;;;9.83;64.17383;102874.5;;;;-77
2022/03/14 18:38:56;;;;;;;;;;;;;;;9.68;64.4082;102874;;;;-77
2022/03/14 18:39:50;;;;;;;6.4;1.5;;;;;;;;;;;;;-76
2022/03/14 18:43:51;;;;;;;;;;;;;;;9.53;64.62988;102875.7;;;;-76
2022/03/14 18:48:51;;;;;;;;;;;;;;;9.39;64.75293;102881;;;;-75
2022/03/14 18:53:54;;;;;;;;;;;;;;;9.25;64.93066;102873.9;;;;-76
2022/03/14 18:58:46;;;;;;;;;;;;;;;9.11;65.08887;102872.8;;;;-76
2022/03/14 19:03:50;;;;;;;;;;;;;;;8.99;65.31348;102873.2;;;;-75
2022/03/14 19:08:47;;;;;;;;;;;;;;;8.88;65.28613;102877.2;;;;-76
2022/03/14 19:09:53;;;;;;;4.9;1.3;;;;;;;;;;;;;-75
2022/03/14 19:13:48;;;;;;;;;;;;;;;8.77;65.40234;102874;;;;-76
2022/03/14 19:18:46;;;;;;;;;;;;;;;8.66;65.49609;102867.6;;;;-76
2022/03/14 19:23:50;;;;;;;;;;;;;;;8.55;65.52441;102869.3;;;;-75
2022/03/14 19:28:47;;;;;;;;;;;;;;;8.45;65.59766;102863.5;;;;-76
2022/03/14 19:33:49;;;;;;;;;;;;;;;8.35;65.55957;102860.1;;;;-77
2022/03/14 19:38:46;;;;;;;;;;;;;;;8.25;65.61133;102859.2;;;;-80
2022/03/14 19:39:53;;;;;;;3.9;1.4;;;;;;;;;;;;;-80
2022/03/14 19:43:48;;;;;;;;;;;;;;;8.15;65.65234;102864;;;;-79
2022/03/14 19:48:50;;;;;;;;;;;;;;;8.07;65.76074;102861.6;;;;-81
2022/03/14 19:53:52;;;;;;;;;;;;;;;7.98;65.82617;102860.3;;;;-81
2022/03/14 19:58:52;;;;;;;;;;;;;;;7.9;65.81348;102867.9;;;;-81
2022/03/14 20:03:48;;;;;;;;;;;;;;;7.82;65.72266;102861.6;;;;-81
2022/03/14 20:08:52;;;;;;;;;;;;;;;7.73;65.85449;102866.8;;;;-80
2022/03/14 20:09:57;;;;;;;5.4;1.6;;;;;;;;;;;;;-82
2022/03/14 20:13:51;;;;;;;;;;;;;;;7.67;65.91016;102865.5;;;;-80
2022/03/14 20:18:46;;;;;;;;;;;;;;;7.62;65.96777;102864.1;;;;-80
2022/03/14 20:24:01;;;;;;;;;;;;;;;7.56;65.95996;102870.5;;;;-81
2022/03/14 20:28:49;;;;;;;;;;;;;;;7.51;66.03027;102876.4;;;;-80
2022/03/14 20:34:04;;;;;;;;;;;;;;;;;;;;;
2022/03/14 20:38:52;;;;;;;;;;;;;;;7.42;65.92773;102883.6;;;;-80
2022/03/14 20:40:03;;;;;;;5;1.6;;;;;;;;;;;;;-79
2022/03/14 20:49:10;;;;;;;;;;;;;;;7.37;66.08496;102893.3;;;;-80
2022/03/14 20:53:58;;;;;;;;;;;;;;;7.32;66.16602;102896.9;;;;-81
2022/03/14 20:58:59;;;;;;;;;;;;;;;7.28;66.07227;102891.4;;;;-82
2022/03/14 21:03:59;;;;;;;;;;;;;;;7.22;66.15137;102891.1;;;;-80
2022/03/14 21:09:06;;;;;;;;;;;;;;;7.16;66.41699;102893.1;;;;-80
2022/03/14 21:17:33;;;;;;;;;;;;;;;7.07;66.32617;102904.9;;;;-81
2022/03/14 21:22:27;;;;;;;;;;;;;;;7.01;66.2627;102910.7;;;;-81
2022/03/14 21:27:38;;;;;;;;;;;;;;;6.94;66.20703;102904.3;;;;-81
2022/03/14 21:44:20;;;;;;;;;;;;;;;6.72;66.25098;102915.5;;;;-82
2022/03/14 21:49:23;;;;;;;;;;;;;;;6.69;66.42285;102913;;;;-78
2022/03/14 21:54:25;;;;;;;;;;;;;;;6.69;66.63184;102913.9;;;;-81
2022/03/14 21:59:23;;;;;;;;;;;;;;;6.7;66.47949;102914.5;;;;-82
2022/03/14 22:04:25;;;;;;;;;;;;;;;6.72;66.5918;102918.5;;;;-80
2022/03/14 22:09:19;;;;;;;;;;;;;;;6.75;66.74121;102921.7;;;;-81
2022/03/14 22:09:53;;;;;;;4.9;1.9;;;;;;;;;;;;;-80
2022/03/14 22:14:33;;;;;;;;;;;;;;;6.8;66.625;102915.7;;;;-81
2022/03/14 22:19:20;;;;;;;;;;;;;;;6.84;66.76563;102906.2;;;;-82
2022/03/14 22:24:19;;;;;;;;;;;;;;;6.87;66.75781;102902.3;;;;-81
2022/03/14 22:29:22;;;;;;;;;;;;;;;6.91;66.79785;102901.2;;;;-81
2022/03/14 22:34:22;;;;;;;;;;;;;;;6.92;66.5127;102901.9;;;;-80
2022/03/14 22:39:19;;;;;;;;;;;;;;;6.95;66.6377;102901.7;;;;-80
2022/03/14 22:39:53;;;;;;;8.3;2;;;;;;;;;;;;;-81
2022/03/14 22:44:24;;;;;;;;;;;;;;;6.98;66.70996;102900.9;;;;-80
2022/03/14 22:49:19;;;;;;;;;;;;;;;7.01;66.71289;102901.2;;;;-80
2022/03/14 22:54:21;;;;;;;;;;;;;;;7.04;66.65234;102903.4;;;;-80
2022/03/14 22:59:19;;;;;;;;;;;;;;;7.08;66.82422;102907.7;;;;-79
2022/03/14 23:09:19;;;;;;;;;;;;;;;7.15;66.87891;102904.5;;;;-80
2022/03/14 23:09:53;;;;;;;5.6;1.8;;;;;;;;;;;;;-82
2022/03/14 23:14:26;;;;;;;;;;;;;;;7.17;66.42969;102902.5;;;;-80
2022/03/14 23:19:21;;;;;;;;;;;;;;;7.16;66.61523;102897.7;;;;-81
2022/03/14 23:24:23;;;;;;;;;;;;;;;7.18;66.8623;102898.5;;;;-81
2022/03/14 23:29:28;;;;;;;;;;;;;;;7.19;66.79688;102892.1;;;;-80
2022/03/14 23:34:22;;;;;;;;;;;;;;;7.21;66.40137;102892.2;;;;-75
2022/03/14 23:39:21;;;;;;;;;;;;;;;7.23;66.51758;102891.5;;;;-76
2022/03/14 23:39:56;;;;;;;5.7;2.1;;;;;;;;;;;;;-77
2022/03/14 23:44:18;;;;;;;;;;;;;;;7.24;66.46289;102895.4;;;;-81
2022/03/14 23:49:19;;;;;;;;;;;;;;;7.25;66.33203;102887.2;;;;-80
2022/03/14 23:54:18;;;;;;;;;;;;;;;7.26;66.54395;102884.5;;;;-81
2022/03/14 23:59:26;;;;;;;;;;;;;;;7.26;66.4873;102881.2;;;;-80
